sensor_id;sensor_type;location;lat;lon;timestamp;P1;durP1;ratioP1;P2;durP2;ratioP2
74168;SDS011;62523;53.336;83.690;2023-08-20T00:00:25;2.75;;;2.40;;
74168;SDS011;62523;53.336;83.690;2023-08-20T00:05:28;11.70;;;2.58;;
74168;SDS011;62523;53.336;83.690;2023-08-20T00:10:30;4.97;;;2.47;;
74168;SDS011;62523;53.336;83.690;2023-08-20T00:15:33;6.13;;;2.07;;
74168;SDS011;62523;53.336;83.690;2023-08-20T00:20:35;3.10;;;2.23;;
74168;SDS011;62523;53.336;83.690;2023-08-20T00:25:37;6.20;;;2.58;;
74168;SDS011;62523;53.336;83.690;2023-08-20T00:30:39;7.07;;;1.90;;
74168;SDS011;62523;53.336;83.690;2023-08-20T00:35:49;13.21;;;2.56;;
74168;SDS011;62523;53.336;83.690;2023-08-20T00:40:50;17.20;;;2.63;;
74168;SDS011;62523;53.336;83.690;2023-08-20T00:45:52;3.08;;;2.55;;
74168;SDS011;62523;53.336;83.690;2023-08-20T00:50:53;2.81;;;2.59;;
74168;SDS011;62523;53.336;83.690;2023-08-20T00:55:55;12.77;;;3.67;;
74168;SDS011;62523;53.336;83.690;2023-08-20T01:00:56;10.07;;;3.88;;
74168;SDS011;62523;53.336;83.690;2023-08-20T01:06:06;5.80;;;3.63;;
74168;SDS011;62523;53.336;83.690;2023-08-20T01:11:21;3.92;;;3.40;;
74168;SDS011;62523;53.336;83.690;2023-08-20T01:16:30;5.07;;;3.75;;
74168;SDS011;62523;53.336;83.690;2023-08-20T01:21:37;6.03;;;4.30;;
74168;SDS011;62523;53.336;83.690;2023-08-20T01:26:47;7.45;;;4.97;;
74168;SDS011;62523;53.336;83.690;2023-08-20T01:31:57;5.28;;;3.88;;
74168;SDS011;62523;53.336;83.690;2023-08-20T01:36:59;16.88;;;5.07;;
74168;SDS011;62523;53.336;83.690;2023-08-20T01:42:01;7.30;;;4.65;;
74168;SDS011;62523;53.336;83.690;2023-08-20T01:47:02;9.15;;;5.78;;
74168;SDS011;62523;53.336;83.690;2023-08-20T01:52:04;10.68;;;6.75;;
74168;SDS011;62523;53.336;83.690;2023-08-20T01:57:06;13.80;;;6.47;;
74168;SDS011;62523;53.336;83.690;2023-08-20T02:02:07;10.70;;;5.85;;
74168;SDS011;62523;53.336;83.690;2023-08-20T02:07:09;7.72;;;6.55;;
74168;SDS011;62523;53.336;83.690;2023-08-20T02:12:10;7.45;;;5.03;;
74168;SDS011;62523;53.336;83.690;2023-08-20T02:17:13;9.55;;;6.35;;
74168;SDS011;62523;53.336;83.690;2023-08-20T02:22:15;17.60;;;12.93;;
74168;SDS011;62523;53.336;83.690;2023-08-20T02:27:16;10.38;;;7.55;;
74168;SDS011;62523;53.336;83.690;2023-08-20T02:32:18;9.00;;;6.68;;
74168;SDS011;62523;53.336;83.690;2023-08-20T02:37:20;9.77;;;5.00;;
74168;SDS011;62523;53.336;83.690;2023-08-20T02:42:22;11.32;;;5.93;;
74168;SDS011;62523;53.336;83.690;2023-08-20T02:47:23;7.32;;;6.00;;
74168;SDS011;62523;53.336;83.690;2023-08-20T02:52:25;9.10;;;5.20;;
74168;SDS011;62523;53.336;83.690;2023-08-20T02:57:27;16.52;;;7.18;;
74168;SDS011;62523;53.336;83.690;2023-08-20T03:02:29;11.48;;;5.28;;
74168;SDS011;62523;53.336;83.690;2023-08-20T03:07:30;8.82;;;5.38;;
74168;SDS011;62523;53.336;83.690;2023-08-20T03:12:33;14.07;;;6.35;;
74168;SDS011;62523;53.336;83.690;2023-08-20T03:17:34;15.48;;;7.78;;
74168;SDS011;62523;53.336;83.690;2023-08-20T03:22:36;8.55;;;6.00;;
74168;SDS011;62523;53.336;83.690;2023-08-20T03:27:39;10.68;;;4.57;;
74168;SDS011;62523;53.336;83.690;2023-08-20T03:32:42;9.52;;;4.32;;
74168;SDS011;62523;53.336;83.690;2023-08-20T03:37:44;8.55;;;4.15;;
74168;SDS011;62523;53.336;83.690;2023-08-20T03:42:46;9.50;;;5.10;;
74168;SDS011;62523;53.336;83.690;2023-08-20T03:47:48;10.40;;;4.38;;
74168;SDS011;62523;53.336;83.690;2023-08-20T03:52:51;7.28;;;5.53;;
74168;SDS011;62523;53.336;83.690;2023-08-20T03:57:53;12.20;;;6.03;;
74168;SDS011;62523;53.336;83.690;2023-08-20T04:02:55;6.97;;;4.07;;
74168;SDS011;62523;53.336;83.690;2023-08-20T04:07:56;9.48;;;5.30;;
74168;SDS011;62523;53.336;83.690;2023-08-20T04:12:58;10.00;;;4.13;;
74168;SDS011;62523;53.336;83.690;2023-08-20T04:18:00;14.93;;;5.00;;
74168;SDS011;62523;53.336;83.690;2023-08-20T04:23:04;8.93;;;4.43;;
74168;SDS011;62523;53.336;83.690;2023-08-20T04:28:05;4.00;;;3.63;;
74168;SDS011;62523;53.336;83.690;2023-08-20T04:33:08;8.57;;;4.88;;
74168;SDS011;62523;53.336;83.690;2023-08-20T04:38:10;12.85;;;3.67;;
74168;SDS011;62523;53.336;83.690;2023-08-20T04:43:12;8.38;;;4.25;;
74168;SDS011;62523;53.336;83.690;2023-08-20T04:48:14;4.93;;;3.58;;
74168;SDS011;62523;53.336;83.690;2023-08-20T04:53:16;7.88;;;4.82;;
74168;SDS011;62523;53.336;83.690;2023-08-20T04:58:19;5.68;;;3.70;;
74168;SDS011;62523;53.336;83.690;2023-08-20T05:03:21;12.10;;;4.82;;
74168;SDS011;62523;53.336;83.690;2023-08-20T05:08:23;4.93;;;3.72;;
74168;SDS011;62523;53.336;83.690;2023-08-20T05:13:25;5.35;;;3.67;;
74168;SDS011;62523;53.336;83.690;2023-08-20T05:18:27;4.65;;;3.25;;
74168;SDS011;62523;53.336;83.690;2023-08-20T05:23:29;7.47;;;4.68;;
74168;SDS011;62523;53.336;83.690;2023-08-20T05:28:31;19.20;;;14.55;;
74168;SDS011;62523;53.336;83.690;2023-08-20T05:33:33;15.47;;;10.07;;
74168;SDS011;62523;53.336;83.690;2023-08-20T05:38:36;6.30;;;3.53;;
74168;SDS011;62523;53.336;83.690;2023-08-20T05:43:39;15.88;;;3.55;;
74168;SDS011;62523;53.336;83.690;2023-08-20T05:48:41;19.58;;;4.78;;
74168;SDS011;62523;53.336;83.690;2023-08-20T05:53:44;13.07;;;3.60;;
74168;SDS011;62523;53.336;83.690;2023-08-20T05:58:46;7.45;;;3.00;;
74168;SDS011;62523;53.336;83.690;2023-08-20T06:03:49;6.03;;;3.45;;
74168;SDS011;62523;53.336;83.690;2023-08-20T06:08:52;5.88;;;4.05;;
74168;SDS011;62523;53.336;83.690;2023-08-20T06:13:53;6.30;;;5.30;;
74168;SDS011;62523;53.336;83.690;2023-08-20T06:18:55;7.40;;;3.25;;
74168;SDS011;62523;53.336;83.690;2023-08-20T06:23:58;5.85;;;3.45;;
74168;SDS011;62523;53.336;83.690;2023-08-20T06:29:00;4.65;;;3.35;;
74168;SDS011;62523;53.336;83.690;2023-08-20T06:34:03;5.20;;;3.50;;
74168;SDS011;62523;53.336;83.690;2023-08-20T06:39:05;8.68;;;3.72;;
74168;SDS011;62523;53.336;83.690;2023-08-20T06:44:07;14.77;;;3.38;;
74168;SDS011;62523;53.336;83.690;2023-08-20T06:49:09;5.32;;;3.55;;
74168;SDS011;62523;53.336;83.690;2023-08-20T06:54:10;7.03;;;3.30;;
74168;SDS011;62523;53.336;83.690;2023-08-20T06:59:12;10.95;;;3.97;;
74168;SDS011;62523;53.336;83.690;2023-08-20T07:04:14;5.22;;;2.80;;
74168;SDS011;62523;53.336;83.690;2023-08-20T07:09:15;4.70;;;3.50;;
74168;SDS011;62523;53.336;83.690;2023-08-20T07:14:17;9.53;;;4.03;;
74168;SDS011;62523;53.336;83.690;2023-08-20T07:19:19;4.05;;;3.45;;
74168;SDS011;62523;53.336;83.690;2023-08-20T07:24:21;11.77;;;3.53;;
74168;SDS011;62523;53.336;83.690;2023-08-20T07:29:26;6.17;;;3.67;;
74168;SDS011;62523;53.336;83.690;2023-08-20T07:34:31;8.32;;;3.25;;
74168;SDS011;62523;53.336;83.690;2023-08-20T07:39:35;4.32;;;2.58;;
74168;SDS011;62523;53.336;83.690;2023-08-20T07:44:37;6.18;;;2.97;;
74168;SDS011;62523;53.336;83.690;2023-08-20T07:49:39;3.20;;;2.75;;
74168;SDS011;62523;53.336;83.690;2023-08-20T07:54:41;12.02;;;7.28;;
74168;SDS011;62523;53.336;83.690;2023-08-20T07:59:45;15.02;;;8.77;;
74168;SDS011;62523;53.336;83.690;2023-08-20T08:04:47;10.57;;;6.38;;
74168;SDS011;62523;53.336;83.690;2023-08-20T08:09:49;8.30;;;3.17;;
74168;SDS011;62523;53.336;83.690;2023-08-20T08:14:51;8.82;;;4.85;;
74168;SDS011;62523;53.336;83.690;2023-08-20T08:19:52;17.37;;;4.17;;
74168;SDS011;62523;53.336;83.690;2023-08-20T08:24:57;7.53;;;4.23;;
74168;SDS011;62523;53.336;83.690;2023-08-20T08:30:00;6.90;;;3.28;;
74168;SDS011;62523;53.336;83.690;2023-08-20T08:35:05;6.22;;;4.30;;
74168;SDS011;62523;53.336;83.690;2023-08-20T08:40:08;5.35;;;3.58;;
74168;SDS011;62523;53.336;83.690;2023-08-20T08:45:11;6.60;;;3.00;;
74168;SDS011;62523;53.336;83.690;2023-08-20T08:50:13;8.07;;;2.63;;
74168;SDS011;62523;53.336;83.690;2023-08-20T08:55:15;5.45;;;3.03;;
74168;SDS011;62523;53.336;83.690;2023-08-20T09:00:18;2.80;;;2.20;;
74168;SDS011;62523;53.336;83.690;2023-08-20T09:05:19;5.30;;;3.28;;
74168;SDS011;62523;53.336;83.690;2023-08-20T09:10:21;7.00;;;4.20;;
74168;SDS011;62523;53.336;83.690;2023-08-20T09:15:22;5.63;;;4.10;;
74168;SDS011;62523;53.336;83.690;2023-08-20T09:20:36;4.77;;;3.40;;
74168;SDS011;62523;53.336;83.690;2023-08-20T09:25:48;7.06;;;3.93;;
74168;SDS011;62523;53.336;83.690;2023-08-20T09:30:56;8.48;;;4.44;;
74168;SDS011;62523;53.336;83.690;2023-08-20T09:36:05;5.28;;;3.35;;
74168;SDS011;62523;53.336;83.690;2023-08-20T09:41:08;3.20;;;2.90;;
74168;SDS011;62523;53.336;83.690;2023-08-20T09:46:10;4.25;;;3.60;;
74168;SDS011;62523;53.336;83.690;2023-08-20T09:51:14;12.17;;;4.47;;
74168;SDS011;62523;53.336;83.690;2023-08-20T10:01:27;8.47;;;3.23;;
74168;SDS011;62523;53.336;83.690;2023-08-20T10:06:31;4.30;;;3.47;;
74168;SDS011;62523;53.336;83.690;2023-08-20T10:11:34;8.23;;;3.92;;
74168;SDS011;62523;53.336;83.690;2023-08-20T10:16:38;12.15;;;3.53;;
74168;SDS011;62523;53.336;83.690;2023-08-20T10:21:43;4.25;;;3.85;;
74168;SDS011;62523;53.336;83.690;2023-08-20T10:26:47;10.75;;;3.45;;
74168;SDS011;62523;53.336;83.690;2023-08-20T10:31:49;5.18;;;3.70;;
74168;SDS011;62523;53.336;83.690;2023-08-20T10:36:55;14.73;;;4.53;;
74168;SDS011;62523;53.336;83.690;2023-08-20T10:42:09;10.48;;;4.22;;
74168;SDS011;62523;53.336;83.690;2023-08-20T10:47:15;4.85;;;3.75;;
74168;SDS011;62523;53.336;83.690;2023-08-20T10:52:25;8.27;;;4.40;;
74168;SDS011;62523;53.336;83.690;2023-08-20T10:57:32;6.30;;;4.63;;
74168;SDS011;62523;53.336;83.690;2023-08-20T11:02:35;4.00;;;2.90;;
74168;SDS011;62523;53.336;83.690;2023-08-20T11:07:37;4.07;;;2.92;;
74168;SDS011;62523;53.336;83.690;2023-08-20T11:12:39;9.70;;;2.83;;
74168;SDS011;62523;53.336;83.690;2023-08-20T11:17:44;9.43;;;3.37;;
74168;SDS011;62523;53.336;83.690;2023-08-20T11:22:46;8.30;;;3.33;;
74168;SDS011;62523;53.336;83.690;2023-08-20T11:27:48;12.03;;;3.10;;
74168;SDS011;62523;53.336;83.690;2023-08-20T11:32:52;3.67;;;2.63;;
74168;SDS011;62523;53.336;83.690;2023-08-20T11:37:54;4.70;;;3.33;;
74168;SDS011;62523;53.336;83.690;2023-08-20T11:42:56;4.25;;;2.75;;
74168;SDS011;62523;53.336;83.690;2023-08-20T11:47:58;7.80;;;4.05;;
74168;SDS011;62523;53.336;83.690;2023-08-20T11:53:01;5.03;;;3.73;;
74168;SDS011;62523;53.336;83.690;2023-08-20T11:58:04;6.78;;;3.80;;
74168;SDS011;62523;53.336;83.690;2023-08-20T12:03:07;9.13;;;4.70;;
74168;SDS011;62523;53.336;83.690;2023-08-20T12:08:14;8.75;;;4.65;;
74168;SDS011;62523;53.336;83.690;2023-08-20T12:13:19;8.68;;;6.05;;
74168;SDS011;62523;53.336;83.690;2023-08-20T12:18:20;9.75;;;4.68;;
74168;SDS011;62523;53.336;83.690;2023-08-20T12:23:22;6.35;;;4.60;;
74168;SDS011;62523;53.336;83.690;2023-08-20T12:28:25;4.93;;;4.43;;
74168;SDS011;62523;53.336;83.690;2023-08-20T12:33:27;14.27;;;4.65;;
74168;SDS011;62523;53.336;83.690;2023-08-20T12:38:29;5.78;;;4.80;;
74168;SDS011;62523;53.336;83.690;2023-08-20T12:43:34;10.82;;;5.72;;
74168;SDS011;62523;53.336;83.690;2023-08-20T12:48:35;4.93;;;4.10;;
74168;SDS011;62523;53.336;83.690;2023-08-20T12:53:37;8.53;;;4.57;;
74168;SDS011;62523;53.336;83.690;2023-08-20T12:58:38;7.05;;;4.40;;
74168;SDS011;62523;53.336;83.690;2023-08-20T13:03:40;8.17;;;4.90;;
74168;SDS011;62523;53.336;83.690;2023-08-20T13:08:42;6.28;;;4.47;;
74168;SDS011;62523;53.336;83.690;2023-08-20T13:13:45;7.13;;;3.42;;
74168;SDS011;62523;53.336;83.690;2023-08-20T13:18:47;8.77;;;4.65;;
74168;SDS011;62523;53.336;83.690;2023-08-20T13:23:49;17.02;;;4.97;;
74168;SDS011;62523;53.336;83.690;2023-08-20T13:28:51;6.55;;;4.43;;
74168;SDS011;62523;53.336;83.690;2023-08-20T13:33:53;7.20;;;4.85;;
74168;SDS011;62523;53.336;83.690;2023-08-20T13:38:54;7.78;;;5.20;;
74168;SDS011;62523;53.336;83.690;2023-08-20T13:43:56;7.47;;;5.37;;
74168;SDS011;62523;53.336;83.690;2023-08-20T13:48:58;8.27;;;5.88;;
74168;SDS011;62523;53.336;83.690;2023-08-20T13:53:59;9.77;;;6.00;;
74168;SDS011;62523;53.336;83.690;2023-08-20T13:59:01;10.82;;;5.63;;
74168;SDS011;62523;53.336;83.690;2023-08-20T14:04:03;9.52;;;5.47;;
74168;SDS011;62523;53.336;83.690;2023-08-20T14:09:04;19.55;;;6.78;;
74168;SDS011;62523;53.336;83.690;2023-08-20T14:14:06;11.45;;;5.45;;
74168;SDS011;62523;53.336;83.690;2023-08-20T14:19:08;7.40;;;5.47;;
74168;SDS011;62523;53.336;83.690;2023-08-20T14:24:09;8.68;;;6.43;;
74168;SDS011;62523;53.336;83.690;2023-08-20T14:29:11;18.30;;;7.80;;
74168;SDS011;62523;53.336;83.690;2023-08-20T14:34:13;11.75;;;7.18;;
74168;SDS011;62523;53.336;83.690;2023-08-20T14:39:14;10.02;;;5.80;;
74168;SDS011;62523;53.336;83.690;2023-08-20T14:44:16;12.23;;;5.40;;
74168;SDS011;62523;53.336;83.690;2023-08-20T14:49:17;6.15;;;4.55;;
74168;SDS011;62523;53.336;83.690;2023-08-20T14:54:19;7.32;;;5.03;;
74168;SDS011;62523;53.336;83.690;2023-08-20T14:59:22;6.25;;;4.30;;
74168;SDS011;62523;53.336;83.690;2023-08-20T15:04:24;5.05;;;4.55;;
74168;SDS011;62523;53.336;83.690;2023-08-20T15:09:26;6.95;;;5.72;;
74168;SDS011;62523;53.336;83.690;2023-08-20T15:14:28;7.27;;;5.20;;
74168;SDS011;62523;53.336;83.690;2023-08-20T15:19:30;7.90;;;6.03;;
74168;SDS011;62523;53.336;83.690;2023-08-20T15:24:31;12.25;;;6.63;;
74168;SDS011;62523;53.336;83.690;2023-08-20T15:29:33;9.53;;;6.00;;
74168;SDS011;62523;53.336;83.690;2023-08-20T15:34:34;10.93;;;7.22;;
74168;SDS011;62523;53.336;83.690;2023-08-20T15:39:38;18.27;;;6.30;;
74168;SDS011;62523;53.336;83.690;2023-08-20T15:44:40;8.88;;;6.18;;
74168;SDS011;62523;53.336;83.690;2023-08-20T15:49:42;21.95;;;7.22;;
74168;SDS011;62523;53.336;83.690;2023-08-20T15:54:44;9.07;;;6.47;;
74168;SDS011;62523;53.336;83.690;2023-08-20T15:59:46;16.48;;;6.50;;
74168;SDS011;62523;53.336;83.690;2023-08-20T16:04:49;8.57;;;7.47;;
74168;SDS011;62523;53.336;83.690;2023-08-20T16:09:50;7.60;;;6.22;;
74168;SDS011;62523;53.336;83.690;2023-08-20T16:14:52;11.38;;;6.10;;
74168;SDS011;62523;53.336;83.690;2023-08-20T16:19:54;9.23;;;6.68;;
74168;SDS011;62523;53.336;83.690;2023-08-20T16:24:56;9.70;;;7.70;;
74168;SDS011;62523;53.336;83.690;2023-08-20T16:29:58;14.23;;;7.47;;
74168;SDS011;62523;53.336;83.690;2023-08-20T16:34:59;10.32;;;8.18;;
74168;SDS011;62523;53.336;83.690;2023-08-20T16:40:01;7.72;;;5.97;;
74168;SDS011;62523;53.336;83.690;2023-08-20T16:45:06;14.25;;;6.32;;
74168;SDS011;62523;53.336;83.690;2023-08-20T16:50:10;9.30;;;6.87;;
74168;SDS011;62523;53.336;83.690;2023-08-20T16:55:12;10.45;;;6.72;;
74168;SDS011;62523;53.336;83.690;2023-08-20T17:00:14;8.57;;;6.30;;
74168;SDS011;62523;53.336;83.690;2023-08-20T17:05:16;8.43;;;5.25;;
74168;SDS011;62523;53.336;83.690;2023-08-20T17:10:17;6.43;;;5.10;;
74168;SDS011;62523;53.336;83.690;2023-08-20T17:15:19;12.07;;;6.32;;
74168;SDS011;62523;53.336;83.690;2023-08-20T17:20:21;6.93;;;6.23;;
74168;SDS011;62523;53.336;83.690;2023-08-20T17:25:22;9.43;;;6.15;;
74168;SDS011;62523;53.336;83.690;2023-08-20T17:30:24;8.03;;;5.60;;
74168;SDS011;62523;53.336;83.690;2023-08-20T17:35:25;7.88;;;5.85;;
74168;SDS011;62523;53.336;83.690;2023-08-20T17:40:27;6.78;;;5.78;;
74168;SDS011;62523;53.336;83.690;2023-08-20T17:45:28;6.63;;;4.90;;
74168;SDS011;62523;53.336;83.690;2023-08-20T17:50:36;12.03;;;6.47;;
74168;SDS011;62523;53.336;83.690;2023-08-20T17:55:47;40.00;;;6.48;;
74168;SDS011;62523;53.336;83.690;2023-08-20T18:00:49;7.36;;;5.76;;
74168;SDS011;62523;53.336;83.690;2023-08-20T18:05:51;7.95;;;6.57;;
74168;SDS011;62523;53.336;83.690;2023-08-20T18:10:52;7.81;;;5.47;;
74168;SDS011;62523;53.336;83.690;2023-08-20T18:15:55;9.68;;;6.07;;
74168;SDS011;62523;53.336;83.690;2023-08-20T18:20:56;7.20;;;5.77;;
74168;SDS011;62523;53.336;83.690;2023-08-20T18:25:58;7.95;;;5.82;;
74168;SDS011;62523;53.336;83.690;2023-08-20T18:31:00;7.90;;;5.43;;
74168;SDS011;62523;53.336;83.690;2023-08-20T18:36:02;7.97;;;6.43;;
74168;SDS011;62523;53.336;83.690;2023-08-20T18:41:05;20.60;;;6.18;;
74168;SDS011;62523;53.336;83.690;2023-08-20T18:46:08;7.70;;;5.72;;
74168;SDS011;62523;53.336;83.690;2023-08-20T18:51:09;10.10;;;5.10;;
74168;SDS011;62523;53.336;83.690;2023-08-20T18:56:11;8.77;;;6.03;;
74168;SDS011;62523;53.336;83.690;2023-08-20T19:01:12;6.97;;;6.27;;
74168;SDS011;62523;53.336;83.690;2023-08-20T19:06:14;10.52;;;6.43;;
74168;SDS011;62523;53.336;83.690;2023-08-20T19:11:15;7.50;;;6.03;;
74168;SDS011;62523;53.336;83.690;2023-08-20T19:16:17;17.83;;;6.55;;
74168;SDS011;62523;53.336;83.690;2023-08-20T19:21:18;18.10;;;5.33;;
74168;SDS011;62523;53.336;83.690;2023-08-20T19:26:20;10.70;;;5.38;;
74168;SDS011;62523;53.336;83.690;2023-08-20T19:31:22;10.10;;;5.75;;
74168;SDS011;62523;53.336;83.690;2023-08-20T19:36:23;28.50;;;6.63;;
74168;SDS011;62523;53.336;83.690;2023-08-20T19:41:25;6.68;;;5.30;;
74168;SDS011;62523;53.336;83.690;2023-08-20T19:46:26;9.88;;;5.55;;
74168;SDS011;62523;53.336;83.690;2023-08-20T19:51:28;7.72;;;4.30;;
74168;SDS011;62523;53.336;83.690;2023-08-20T19:56:29;11.65;;;5.05;;
74168;SDS011;62523;53.336;83.690;2023-08-20T20:01:31;10.88;;;4.75;;
74168;SDS011;62523;53.336;83.690;2023-08-20T20:06:46;30.85;;;6.43;;
74168;SDS011;62523;53.336;83.690;2023-08-20T20:11:47;5.82;;;4.20;;
74168;SDS011;62523;53.336;83.690;2023-08-20T20:16:49;22.90;;;4.70;;
74168;SDS011;62523;53.336;83.690;2023-08-20T20:21:50;6.22;;;4.75;;
74168;SDS011;62523;53.336;83.690;2023-08-20T20:26:52;5.93;;;4.35;;
74168;SDS011;62523;53.336;83.690;2023-08-20T20:31:53;9.32;;;4.93;;
74168;SDS011;62523;53.336;83.690;2023-08-20T20:36:55;5.75;;;4.38;;
74168;SDS011;62523;53.336;83.690;2023-08-20T20:41:56;7.90;;;4.88;;
74168;SDS011;62523;53.336;83.690;2023-08-20T20:46:57;4.93;;;4.00;;
74168;SDS011;62523;53.336;83.690;2023-08-20T20:51:59;5.32;;;4.18;;
74168;SDS011;62523;53.336;83.690;2023-08-20T20:57:01;5.03;;;3.25;;
74168;SDS011;62523;53.336;83.690;2023-08-20T21:02:02;5.83;;;4.73;;
74168;SDS011;62523;53.336;83.690;2023-08-20T21:07:04;5.80;;;3.37;;
74168;SDS011;62523;53.336;83.690;2023-08-20T21:12:06;5.28;;;4.38;;
74168;SDS011;62523;53.336;83.690;2023-08-20T21:17:07;5.40;;;3.90;;
74168;SDS011;62523;53.336;83.690;2023-08-20T21:22:13;8.68;;;4.13;;
74168;SDS011;62523;53.336;83.690;2023-08-20T21:27:15;5.80;;;4.22;;
74168;SDS011;62523;53.336;83.690;2023-08-20T21:32:16;4.53;;;3.80;;
74168;SDS011;62523;53.336;83.690;2023-08-20T21:37:18;4.88;;;3.70;;
74168;SDS011;62523;53.336;83.690;2023-08-20T21:42:20;3.90;;;3.50;;
74168;SDS011;62523;53.336;83.690;2023-08-20T21:47:22;4.32;;;3.92;;
74168;SDS011;62523;53.336;83.690;2023-08-20T21:52:27;7.30;;;4.03;;
74168;SDS011;62523;53.336;83.690;2023-08-20T21:57:28;5.03;;;4.10;;
74168;SDS011;62523;53.336;83.690;2023-08-20T22:02:30;7.72;;;3.10;;
74168;SDS011;62523;53.336;83.690;2023-08-20T22:07:31;7.15;;;4.63;;
74168;SDS011;62523;53.336;83.690;2023-08-20T22:12:33;4.60;;;3.60;;
74168;SDS011;62523;53.336;83.690;2023-08-20T22:17:34;5.13;;;4.07;;
74168;SDS011;62523;53.336;83.690;2023-08-20T22:22:36;4.00;;;3.60;;
74168;SDS011;62523;53.336;83.690;2023-08-20T22:27:38;7.32;;;3.42;;
74168;SDS011;62523;53.336;83.690;2023-08-20T22:32:40;4.57;;;3.10;;
74168;SDS011;62523;53.336;83.690;2023-08-20T22:37:42;6.53;;;4.13;;
74168;SDS011;62523;53.336;83.690;2023-08-20T22:43:06;9.32;;;4.35;;
74168;SDS011;62523;53.336;83.690;2023-08-20T22:48:08;14.35;;;4.60;;
74168;SDS011;62523;53.336;83.690;2023-08-20T22:53:09;8.23;;;3.87;;
74168;SDS011;62523;53.336;83.690;2023-08-20T22:58:11;8.68;;;3.85;;
74168;SDS011;62523;53.336;83.690;2023-08-20T23:03:12;5.43;;;3.70;;
74168;SDS011;62523;53.336;83.690;2023-08-20T23:08:14;4.55;;;3.25;;
74168;SDS011;62523;53.336;83.690;2023-08-20T23:13:15;9.80;;;3.97;;
74168;SDS011;62523;53.336;83.690;2023-08-20T23:18:17;11.02;;;4.40;;
74168;SDS011;62523;53.336;83.690;2023-08-20T23:23:18;4.05;;;3.25;;
74168;SDS011;62523;53.336;83.690;2023-08-20T23:28:20;9.38;;;5.05;;
74168;SDS011;62523;53.336;83.690;2023-08-20T23:33:21;6.60;;;5.13;;
74168;SDS011;62523;53.336;83.690;2023-08-20T23:38:23;9.88;;;4.90;;
74168;SDS011;62523;53.336;83.690;2023-08-20T23:43:25;7.00;;;5.78;;
74168;SDS011;62523;53.336;83.690;2023-08-20T23:48:27;8.10;;;6.10;;
74168;SDS011;62523;53.336;83.690;2023-08-20T23:53:29;8.60;;;4.78;;
74168;SDS011;62523;53.336;83.690;2023-08-20T23:58:30;4.90;;;3.80;;
